sensor_id;sensor_type;location;lat;lon;timestamp;P1;durP1;ratioP1;P2;durP2;ratioP2
4971;SDS011;2501;51.214;6.768;2022-11-15T00:01:17;13.23;;;10.05;;
4971;SDS011;2501;51.214;6.768;2022-11-15T00:03:48;14.15;;;10.35;;
4971;SDS011;2501;51.214;6.768;2022-11-15T00:06:19;13.40;;;9.67;;
4971;SDS011;2501;51.214;6.768;2022-11-15T00:08:50;16.10;;;9.10;;
4971;SDS011;2501;51.214;6.768;2022-11-15T00:11:18;11.18;;;8.50;;
4971;SDS011;2501;51.214;6.768;2022-11-15T00:13:47;15.43;;;10.40;;
4971;SDS011;2501;51.214;6.768;2022-11-15T00:16:15;12.45;;;9.68;;
4971;SDS011;2501;51.214;6.768;2022-11-15T00:18:44;14.10;;;9.80;;
4971;SDS011;2501;51.214;6.768;2022-11-15T00:21:13;15.02;;;9.45;;
4971;SDS011;2501;51.214;6.768;2022-11-15T00:23:43;13.18;;;9.25;;
4971;SDS011;2501;51.214;6.768;2022-11-15T00:26:14;11.80;;;9.20;;
4971;SDS011;2501;51.214;6.768;2022-11-15T00:28:43;12.60;;;9.45;;
4971;SDS011;2501;51.214;6.768;2022-11-15T00:31:12;13.30;;;9.40;;
4971;SDS011;2501;51.214;6.768;2022-11-15T00:33:42;13.60;;;9.17;;
4971;SDS011;2501;51.214;6.768;2022-11-15T00:36:11;18.55;;;10.02;;
4971;SDS011;2501;51.214;6.768;2022-11-15T00:38:40;14.32;;;9.43;;
4971;SDS011;2501;51.214;6.768;2022-11-15T00:41:09;13.15;;;9.50;;
4971;SDS011;2501;51.214;6.768;2022-11-15T00:43:40;13.68;;;8.80;;
4971;SDS011;2501;51.214;6.768;2022-11-15T00:46:08;12.55;;;8.65;;
4971;SDS011;2501;51.214;6.768;2022-11-15T00:48:37;18.20;;;10.63;;
4971;SDS011;2501;51.214;6.768;2022-11-15T00:51:05;15.18;;;9.10;;
4971;SDS011;2501;51.214;6.768;2022-11-15T00:53:34;12.85;;;9.80;;
4971;SDS011;2501;51.214;6.768;2022-11-15T00:56:02;13.13;;;8.80;;
4971;SDS011;2501;51.214;6.768;2022-11-15T00:58:31;14.70;;;9.20;;
4971;SDS011;2501;51.214;6.768;2022-11-15T01:01:09;12.27;;;8.30;;
4971;SDS011;2501;51.214;6.768;2022-11-15T01:03:39;14.05;;;9.38;;
4971;SDS011;2501;51.214;6.768;2022-11-15T01:06:09;12.88;;;9.32;;
4971;SDS011;2501;51.214;6.768;2022-11-15T01:08:38;12.27;;;9.80;;
4971;SDS011;2501;51.214;6.768;2022-11-15T01:11:08;13.93;;;9.40;;
4971;SDS011;2501;51.214;6.768;2022-11-15T01:13:38;11.05;;;8.30;;
4971;SDS011;2501;51.214;6.768;2022-11-15T01:16:11;14.18;;;9.20;;
4971;SDS011;2501;51.214;6.768;2022-11-15T01:18:42;11.10;;;8.82;;
4971;SDS011;2501;51.214;6.768;2022-11-15T01:21:11;11.57;;;8.88;;
4971;SDS011;2501;51.214;6.768;2022-11-15T01:23:41;12.13;;;8.80;;
4971;SDS011;2501;51.214;6.768;2022-11-15T01:26:11;12.05;;;9.05;;
4971;SDS011;2501;51.214;6.768;2022-11-15T01:28:41;16.80;;;9.25;;
4971;SDS011;2501;51.214;6.768;2022-11-15T01:31:15;14.38;;;9.10;;
4971;SDS011;2501;51.214;6.768;2022-11-15T01:33:46;16.90;;;8.80;;
4971;SDS011;2501;51.214;6.768;2022-11-15T01:36:16;12.75;;;9.10;;
4971;SDS011;2501;51.214;6.768;2022-11-15T01:38:46;15.30;;;9.10;;
4971;SDS011;2501;51.214;6.768;2022-11-15T01:41:20;11.73;;;9.50;;
4971;SDS011;2501;51.214;6.768;2022-11-15T01:43:51;12.88;;;7.65;;
4971;SDS011;2501;51.214;6.768;2022-11-15T01:46:28;14.60;;;9.30;;
4971;SDS011;2501;51.214;6.768;2022-11-15T01:49:00;17.23;;;9.60;;
4971;SDS011;2501;51.214;6.768;2022-11-15T01:51:31;16.42;;;9.20;;
4971;SDS011;2501;51.214;6.768;2022-11-15T01:54:02;13.40;;;9.05;;
4971;SDS011;2501;51.214;6.768;2022-11-15T01:56:36;12.73;;;9.40;;
4971;SDS011;2501;51.214;6.768;2022-11-15T01:59:09;14.40;;;9.32;;
4971;SDS011;2501;51.214;6.768;2022-11-15T02:01:42;13.98;;;8.55;;
4971;SDS011;2501;51.214;6.768;2022-11-15T02:04:11;13.63;;;8.37;;
4971;SDS011;2501;51.214;6.768;2022-11-15T02:06:42;10.77;;;8.57;;
4971;SDS011;2501;51.214;6.768;2022-11-15T02:09:12;12.23;;;8.85;;
4971;SDS011;2501;51.214;6.768;2022-11-15T02:11:41;15.18;;;9.57;;
4971;SDS011;2501;51.214;6.768;2022-11-15T02:14:11;16.33;;;8.80;;
4971;SDS011;2501;51.214;6.768;2022-11-15T02:17:01;14.60;;;8.43;;
4971;SDS011;2501;51.214;6.768;2022-11-15T02:22:42;13.50;;;9.30;;
4971;SDS011;2501;51.214;6.768;2022-11-15T02:25:28;15.63;;;9.07;;
4971;SDS011;2501;51.214;6.768;2022-11-15T02:28:12;12.50;;;9.38;;
4971;SDS011;2501;51.214;6.768;2022-11-15T02:30:54;11.25;;;8.80;;
4971;SDS011;2501;51.214;6.768;2022-11-15T02:33:31;13.90;;;9.27;;
4971;SDS011;2501;51.214;6.768;2022-11-15T02:36:09;14.45;;;8.90;;
4971;SDS011;2501;51.214;6.768;2022-11-15T02:38:44;15.33;;;9.20;;
4971;SDS011;2501;51.214;6.768;2022-11-15T02:41:21;11.57;;;8.32;;
4971;SDS011;2501;51.214;6.768;2022-11-15T02:43:56;12.50;;;8.77;;
4971;SDS011;2501;51.214;6.768;2022-11-15T02:46:31;13.52;;;8.60;;
4971;SDS011;2501;51.214;6.768;2022-11-15T02:49:16;10.85;;;8.80;;
4971;SDS011;2501;51.214;6.768;2022-11-15T02:51:46;13.70;;;9.60;;
4971;SDS011;2501;51.214;6.768;2022-11-15T02:54:18;10.15;;;8.43;;
4971;SDS011;2501;51.214;6.768;2022-11-15T02:56:50;11.90;;;9.40;;
4971;SDS011;2501;51.214;6.768;2022-11-15T02:59:29;11.88;;;9.05;;
4971;SDS011;2501;51.214;6.768;2022-11-15T03:02:18;15.95;;;8.82;;
4971;SDS011;2501;51.214;6.768;2022-11-15T03:05:04;14.23;;;9.10;;
4971;SDS011;2501;51.214;6.768;2022-11-15T03:07:44;14.18;;;10.13;;
4971;SDS011;2501;51.214;6.768;2022-11-15T03:10:29;19.45;;;9.43;;
4971;SDS011;2501;51.214;6.768;2022-11-15T03:13:16;14.57;;;9.95;;
4971;SDS011;2501;51.214;6.768;2022-11-15T03:15:53;16.95;;;9.27;;
4971;SDS011;2501;51.214;6.768;2022-11-15T03:18:31;11.50;;;9.10;;
4971;SDS011;2501;51.214;6.768;2022-11-15T03:21:03;19.60;;;8.93;;
4971;SDS011;2501;51.214;6.768;2022-11-15T03:23:35;15.75;;;9.20;;
4971;SDS011;2501;51.214;6.768;2022-11-15T03:26:07;14.63;;;10.02;;
4971;SDS011;2501;51.214;6.768;2022-11-15T03:28:41;13.02;;;8.88;;
4971;SDS011;2501;51.214;6.768;2022-11-15T03:31:13;13.30;;;8.83;;
4971;SDS011;2501;51.214;6.768;2022-11-15T03:34:00;10.70;;;8.43;;
4971;SDS011;2501;51.214;6.768;2022-11-15T03:36:33;13.32;;;9.07;;
4971;SDS011;2501;51.214;6.768;2022-11-15T03:39:04;13.97;;;9.00;;
4971;SDS011;2501;51.214;6.768;2022-11-15T03:41:35;14.80;;;9.03;;
4971;SDS011;2501;51.214;6.768;2022-11-15T03:44:13;11.45;;;9.07;;
4971;SDS011;2501;51.214;6.768;2022-11-15T03:46:50;11.77;;;8.82;;
4971;SDS011;2501;51.214;6.768;2022-11-15T03:49:31;11.80;;;8.60;;
4971;SDS011;2501;51.214;6.768;2022-11-15T03:52:02;12.02;;;8.70;;
4971;SDS011;2501;51.214;6.768;2022-11-15T03:54:32;12.93;;;8.40;;
4971;SDS011;2501;51.214;6.768;2022-11-15T03:57:00;11.52;;;9.30;;
4971;SDS011;2501;51.214;6.768;2022-11-15T03:59:29;10.48;;;8.43;;
4971;SDS011;2501;51.214;6.768;2022-11-15T04:01:57;15.27;;;8.50;;
4971;SDS011;2501;51.214;6.768;2022-11-15T04:04:26;10.43;;;8.33;;
4971;SDS011;2501;51.214;6.768;2022-11-15T04:06:57;10.95;;;8.00;;
4971;SDS011;2501;51.214;6.768;2022-11-15T04:09:25;12.57;;;8.55;;
4971;SDS011;2501;51.214;6.768;2022-11-15T04:11:54;13.00;;;7.82;;
4971;SDS011;2501;51.214;6.768;2022-11-15T04:14:22;11.37;;;7.90;;
4971;SDS011;2501;51.214;6.768;2022-11-15T04:16:50;10.63;;;7.80;;
4971;SDS011;2501;51.214;6.768;2022-11-15T04:19:19;9.80;;;7.50;;
4971;SDS011;2501;51.214;6.768;2022-11-15T04:22:02;12.00;;;8.18;;
4971;SDS011;2501;51.214;6.768;2022-11-15T04:24:48;11.50;;;7.82;;
4971;SDS011;2501;51.214;6.768;2022-11-15T04:27:17;12.75;;;7.78;;
4971;SDS011;2501;51.214;6.768;2022-11-15T04:29:45;9.07;;;8.00;;
4971;SDS011;2501;51.214;6.768;2022-11-15T04:32:14;12.18;;;7.60;;
4971;SDS011;2501;51.214;6.768;2022-11-15T04:34:42;10.88;;;7.68;;
4971;SDS011;2501;51.214;6.768;2022-11-15T04:37:13;9.85;;;7.82;;
4971;SDS011;2501;51.214;6.768;2022-11-15T04:39:42;10.35;;;7.75;;
4971;SDS011;2501;51.214;6.768;2022-11-15T04:42:11;9.57;;;7.00;;
4971;SDS011;2501;51.214;6.768;2022-11-15T04:44:39;8.70;;;7.40;;
4971;SDS011;2501;51.214;6.768;2022-11-15T04:47:08;9.45;;;7.50;;
4971;SDS011;2501;51.214;6.768;2022-11-15T04:49:36;11.75;;;7.70;;
4971;SDS011;2501;51.214;6.768;2022-11-15T04:52:04;10.65;;;7.90;;
4971;SDS011;2501;51.214;6.768;2022-11-15T04:54:35;13.57;;;7.63;;
4971;SDS011;2501;51.214;6.768;2022-11-15T04:57:04;13.07;;;8.68;;
4971;SDS011;2501;51.214;6.768;2022-11-15T04:59:32;11.82;;;8.07;;
4971;SDS011;2501;51.214;6.768;2022-11-15T05:02:01;12.50;;;8.50;;
4971;SDS011;2501;51.214;6.768;2022-11-15T05:04:29;13.65;;;8.40;;
4971;SDS011;2501;51.214;6.768;2022-11-15T05:06:55;12.55;;;8.25;;
4971;SDS011;2501;51.214;6.768;2022-11-15T05:09:23;10.80;;;7.80;;
4971;SDS011;2501;51.214;6.768;2022-11-15T05:11:54;13.30;;;8.75;;
4971;SDS011;2501;51.214;6.768;2022-11-15T05:14:23;9.95;;;8.10;;
4971;SDS011;2501;51.214;6.768;2022-11-15T05:16:51;12.05;;;8.45;;
4971;SDS011;2501;51.214;6.768;2022-11-15T05:19:20;22.15;;;11.40;;
4971;SDS011;2501;51.214;6.768;2022-11-15T05:21:48;13.50;;;9.17;;
4971;SDS011;2501;51.214;6.768;2022-11-15T05:24:17;12.55;;;8.30;;
4971;SDS011;2501;51.214;6.768;2022-11-15T05:26:45;11.20;;;8.77;;
4971;SDS011;2501;51.214;6.768;2022-11-15T05:29:16;11.23;;;9.38;;
4971;SDS011;2501;51.214;6.768;2022-11-15T05:31:45;13.73;;;8.55;;
4971;SDS011;2501;51.214;6.768;2022-11-15T05:34:13;11.32;;;7.95;;
4971;SDS011;2501;51.214;6.768;2022-11-15T05:36:43;9.80;;;8.32;;
4971;SDS011;2501;51.214;6.768;2022-11-15T05:39:12;10.65;;;8.88;;
4971;SDS011;2501;51.214;6.768;2022-11-15T05:41:41;12.32;;;8.55;;
4971;SDS011;2501;51.214;6.768;2022-11-15T05:44:14;10.77;;;8.52;;
4971;SDS011;2501;51.214;6.768;2022-11-15T05:46:48;11.20;;;8.23;;
4971;SDS011;2501;51.214;6.768;2022-11-15T05:49:20;10.80;;;8.30;;
4971;SDS011;2501;51.214;6.768;2022-11-15T05:51:51;11.10;;;8.02;;
4971;SDS011;2501;51.214;6.768;2022-11-15T05:54:21;9.75;;;7.60;;
4971;SDS011;2501;51.214;6.768;2022-11-15T05:56:51;11.57;;;8.27;;
4971;SDS011;2501;51.214;6.768;2022-11-15T05:59:23;11.98;;;7.88;;
4971;SDS011;2501;51.214;6.768;2022-11-15T06:01:52;7.50;;;6.80;;
4971;SDS011;2501;51.214;6.768;2022-11-15T06:04:20;11.10;;;7.90;;
4971;SDS011;2501;51.214;6.768;2022-11-15T06:06:50;8.82;;;7.63;;
4971;SDS011;2501;51.214;6.768;2022-11-15T06:09:19;9.85;;;8.00;;
4971;SDS011;2501;51.214;6.768;2022-11-15T06:11:47;11.32;;;8.10;;
4971;SDS011;2501;51.214;6.768;2022-11-15T06:14:16;11.05;;;8.20;;
4971;SDS011;2501;51.214;6.768;2022-11-15T06:16:47;9.60;;;7.90;;
4971;SDS011;2501;51.214;6.768;2022-11-15T06:19:15;12.55;;;8.80;;
4971;SDS011;2501;51.214;6.768;2022-11-15T06:21:43;11.00;;;8.40;;
4971;SDS011;2501;51.214;6.768;2022-11-15T06:24:12;9.90;;;7.83;;
4971;SDS011;2501;51.214;6.768;2022-11-15T06:26:40;9.70;;;8.07;;
4971;SDS011;2501;51.214;6.768;2022-11-15T06:29:09;8.90;;;7.60;;
4971;SDS011;2501;51.214;6.768;2022-11-15T06:31:37;12.32;;;7.50;;
4971;SDS011;2501;51.214;6.768;2022-11-15T06:34:08;8.23;;;6.97;;
4971;SDS011;2501;51.214;6.768;2022-11-15T06:36:37;8.23;;;6.75;;
4971;SDS011;2501;51.214;6.768;2022-11-15T06:39:05;7.82;;;6.85;;
4971;SDS011;2501;51.214;6.768;2022-11-15T06:41:34;8.60;;;7.20;;
4971;SDS011;2501;51.214;6.768;2022-11-15T06:44:03;9.57;;;7.07;;
4971;SDS011;2501;51.214;6.768;2022-11-15T06:46:31;9.40;;;7.00;;
4971;SDS011;2501;51.214;6.768;2022-11-15T06:49:00;7.68;;;6.40;;
4971;SDS011;2501;51.214;6.768;2022-11-15T06:51:31;7.75;;;6.95;;
4971;SDS011;2501;51.214;6.768;2022-11-15T06:53:59;7.80;;;6.13;;
4971;SDS011;2501;51.214;6.768;2022-11-15T06:56:28;6.30;;;5.70;;
4971;SDS011;2501;51.214;6.768;2022-11-15T06:58:56;7.00;;;6.30;;
4971;SDS011;2501;51.214;6.768;2022-11-15T07:01:24;8.60;;;5.88;;
4971;SDS011;2501;51.214;6.768;2022-11-15T07:03:53;7.60;;;5.93;;
4971;SDS011;2501;51.214;6.768;2022-11-15T07:06:21;6.22;;;5.72;;
4971;SDS011;2501;51.214;6.768;2022-11-15T07:08:52;6.38;;;5.70;;
4971;SDS011;2501;51.214;6.768;2022-11-15T07:11:21;6.50;;;5.53;;
4971;SDS011;2501;51.214;6.768;2022-11-15T07:13:49;9.10;;;5.82;;
4971;SDS011;2501;51.214;6.768;2022-11-15T07:16:18;11.15;;;6.70;;
4971;SDS011;2501;51.214;6.768;2022-11-15T07:18:46;11.38;;;6.72;;
4971;SDS011;2501;51.214;6.768;2022-11-15T07:21:14;7.07;;;6.38;;
4971;SDS011;2501;51.214;6.768;2022-11-15T07:23:43;6.28;;;5.68;;
4971;SDS011;2501;51.214;6.768;2022-11-15T07:26:14;7.88;;;5.57;;
4971;SDS011;2501;51.214;6.768;2022-11-15T07:28:42;6.80;;;5.40;;
4971;SDS011;2501;51.214;6.768;2022-11-15T07:31:11;6.13;;;5.53;;
4971;SDS011;2501;51.214;6.768;2022-11-15T07:33:39;9.00;;;5.30;;
4971;SDS011;2501;51.214;6.768;2022-11-15T07:36:08;8.38;;;5.85;;
4971;SDS011;2501;51.214;6.768;2022-11-15T07:38:37;4.97;;;4.32;;
4971;SDS011;2501;51.214;6.768;2022-11-15T07:41:06;4.15;;;3.85;;
4971;SDS011;2501;51.214;6.768;2022-11-15T07:43:37;8.30;;;4.90;;
4971;SDS011;2501;51.214;6.768;2022-11-15T07:46:06;7.20;;;4.30;;
4971;SDS011;2501;51.214;6.768;2022-11-15T07:48:36;7.65;;;4.18;;
4971;SDS011;2501;51.214;6.768;2022-11-15T07:51:05;7.03;;;4.20;;
4971;SDS011;2501;51.214;6.768;2022-11-15T07:53:34;4.90;;;4.40;;
4971;SDS011;2501;51.214;6.768;2022-11-15T07:56:05;9.40;;;4.55;;
4971;SDS011;2501;51.214;6.768;2022-11-15T07:58:33;5.78;;;4.32;;
4971;SDS011;2501;51.214;6.768;2022-11-15T08:01:05;6.20;;;4.50;;
4971;SDS011;2501;51.214;6.768;2022-11-15T08:03:34;6.75;;;4.60;;
4971;SDS011;2501;51.214;6.768;2022-11-15T08:06:03;6.60;;;4.45;;
4971;SDS011;2501;51.214;6.768;2022-11-15T08:08:32;5.63;;;4.30;;
4971;SDS011;2501;51.214;6.768;2022-11-15T08:11:01;9.53;;;4.70;;
4971;SDS011;2501;51.214;6.768;2022-11-15T08:13:30;4.65;;;4.25;;
4971;SDS011;2501;51.214;6.768;2022-11-15T08:16:01;5.50;;;4.13;;
4971;SDS011;2501;51.214;6.768;2022-11-15T08:18:30;6.68;;;4.38;;
4971;SDS011;2501;51.214;6.768;2022-11-15T08:20:59;4.15;;;3.80;;
4971;SDS011;2501;51.214;6.768;2022-11-15T08:23:28;5.22;;;3.97;;
4971;SDS011;2501;51.214;6.768;2022-11-15T08:26:00;6.38;;;3.80;;
4971;SDS011;2501;51.214;6.768;2022-11-15T08:28:29;4.38;;;4.03;;
4971;SDS011;2501;51.214;6.768;2022-11-15T08:31:01;4.70;;;4.10;;
4971;SDS011;2501;51.214;6.768;2022-11-15T08:33:31;9.10;;;4.05;;
4971;SDS011;2501;51.214;6.768;2022-11-15T08:36:00;7.32;;;3.70;;
4971;SDS011;2501;51.214;6.768;2022-11-15T08:38:28;4.85;;;3.83;;
4971;SDS011;2501;51.214;6.768;2022-11-15T08:40:59;5.95;;;3.80;;
4971;SDS011;2501;51.214;6.768;2022-11-15T08:43:31;6.90;;;3.37;;
4971;SDS011;2501;51.214;6.768;2022-11-15T08:46:02;4.18;;;3.33;;
4971;SDS011;2501;51.214;6.768;2022-11-15T08:48:30;4.47;;;2.60;;
4971;SDS011;2501;51.214;6.768;2022-11-15T08:50:59;6.97;;;3.45;;
4971;SDS011;2501;51.214;6.768;2022-11-15T08:53:27;4.10;;;3.70;;
4971;SDS011;2501;51.214;6.768;2022-11-15T08:55:56;3.20;;;2.55;;
4971;SDS011;2501;51.214;6.768;2022-11-15T08:58:24;3.45;;;2.72;;
4971;SDS011;2501;51.214;6.768;2022-11-15T09:00:53;4.60;;;3.05;;
4971;SDS011;2501;51.214;6.768;2022-11-15T09:03:24;4.43;;;3.20;;
4971;SDS011;2501;51.214;6.768;2022-11-15T09:05:54;3.20;;;2.90;;
4971;SDS011;2501;51.214;6.768;2022-11-15T09:08:23;2.90;;;2.45;;
4971;SDS011;2501;51.214;6.768;2022-11-15T09:10:52;3.13;;;2.30;;
4971;SDS011;2501;51.214;6.768;2022-11-15T09:13:21;5.73;;;2.80;;
4971;SDS011;2501;51.214;6.768;2022-11-15T09:15:49;5.00;;;2.80;;
4971;SDS011;2501;51.214;6.768;2022-11-15T09:18:18;5.35;;;2.40;;
4971;SDS011;2501;51.214;6.768;2022-11-15T09:20:50;5.43;;;2.60;;
4971;SDS011;2501;51.214;6.768;2022-11-15T09:23:18;2.72;;;2.53;;
4971;SDS011;2501;51.214;6.768;2022-11-15T09:25:47;2.80;;;2.10;;
4971;SDS011;2501;51.214;6.768;2022-11-15T09:28:15;9.68;;;6.68;;
4971;SDS011;2501;51.214;6.768;2022-11-15T09:30:44;3.58;;;3.28;;
4971;SDS011;2501;51.214;6.768;2022-11-15T09:33:12;2.60;;;2.10;;
4971;SDS011;2501;51.214;6.768;2022-11-15T09:35:41;2.97;;;2.05;;
4971;SDS011;2501;51.214;6.768;2022-11-15T09:38:12;5.77;;;2.50;;
4971;SDS011;2501;51.214;6.768;2022-11-15T09:40:40;4.25;;;2.05;;
4971;SDS011;2501;51.214;6.768;2022-11-15T09:43:15;5.57;;;1.83;;
4971;SDS011;2501;51.214;6.768;2022-11-15T09:45:55;1.90;;;1.80;;
4971;SDS011;2501;51.214;6.768;2022-11-15T09:48:34;8.53;;;3.40;;
4971;SDS011;2501;51.214;6.768;2022-11-15T09:51:15;2.75;;;1.90;;
4971;SDS011;2501;51.214;6.768;2022-11-15T09:53:58;4.40;;;2.28;;
4971;SDS011;2501;51.214;6.768;2022-11-15T09:56:33;4.47;;;1.43;;
4971;SDS011;2501;51.214;6.768;2022-11-15T09:59:08;2.47;;;1.92;;
4971;SDS011;2501;51.214;6.768;2022-11-15T10:01:53;8.23;;;2.22;;
4971;SDS011;2501;51.214;6.768;2022-11-15T10:04:28;4.20;;;2.05;;
4971;SDS011;2501;51.214;6.768;2022-11-15T10:06:58;4.07;;;1.85;;
4971;SDS011;2501;51.214;6.768;2022-11-15T10:09:36;4.20;;;2.30;;
4971;SDS011;2501;51.214;6.768;2022-11-15T10:12:10;2.78;;;1.90;;
4971;SDS011;2501;51.214;6.768;2022-11-15T10:14:42;4.50;;;2.00;;
4971;SDS011;2501;51.214;6.768;2022-11-15T10:17:18;3.28;;;2.05;;
4971;SDS011;2501;51.214;6.768;2022-11-15T10:19:59;7.00;;;3.13;;
4971;SDS011;2501;51.214;6.768;2022-11-15T10:22:37;4.20;;;2.40;;
4971;SDS011;2501;51.214;6.768;2022-11-15T10:27:58;4.67;;;3.40;;
4971;SDS011;2501;51.214;6.768;2022-11-15T10:30:30;6.65;;;4.15;;
4971;SDS011;2501;51.214;6.768;2022-11-15T10:33:08;4.57;;;3.30;;
4971;SDS011;2501;51.214;6.768;2022-11-15T10:35:41;2.30;;;2.00;;
4971;SDS011;2501;51.214;6.768;2022-11-15T10:38:10;8.20;;;2.40;;
4971;SDS011;2501;51.214;6.768;2022-11-15T10:40:42;3.72;;;2.85;;
4971;SDS011;2501;51.214;6.768;2022-11-15T10:43:15;3.70;;;2.30;;
4971;SDS011;2501;51.214;6.768;2022-11-15T10:45:45;3.70;;;1.70;;
4971;SDS011;2501;51.214;6.768;2022-11-15T10:48:19;6.72;;;1.80;;
4971;SDS011;2501;51.214;6.768;2022-11-15T10:50:52;2.85;;;1.80;;
4971;SDS011;2501;51.214;6.768;2022-11-15T10:53:27;5.13;;;2.20;;
4971;SDS011;2501;51.214;6.768;2022-11-15T10:56:03;3.63;;;1.70;;
4971;SDS011;2501;51.214;6.768;2022-11-15T10:58:37;2.90;;;2.22;;
4971;SDS011;2501;51.214;6.768;2022-11-15T11:01:11;3.75;;;2.10;;
4971;SDS011;2501;51.214;6.768;2022-11-15T11:03:42;4.40;;;2.60;;
4971;SDS011;2501;51.214;6.768;2022-11-15T11:06:13;2.00;;;1.60;;
4971;SDS011;2501;51.214;6.768;2022-11-15T11:08:56;6.65;;;1.35;;
4971;SDS011;2501;51.214;6.768;2022-11-15T11:11:31;1.70;;;1.45;;
4971;SDS011;2501;51.214;6.768;2022-11-15T11:14:13;2.95;;;1.40;;
4971;SDS011;2501;51.214;6.768;2022-11-15T11:16:49;2.85;;;1.20;;
4971;SDS011;2501;51.214;6.768;2022-11-15T11:19:27;3.83;;;1.50;;
4971;SDS011;2501;51.214;6.768;2022-11-15T11:22:05;2.80;;;1.40;;
4971;SDS011;2501;51.214;6.768;2022-11-15T11:24:40;4.50;;;1.77;;
4971;SDS011;2501;51.214;6.768;2022-11-15T11:27:16;4.13;;;2.83;;
4971;SDS011;2501;51.214;6.768;2022-11-15T11:30:02;3.28;;;1.40;;
4971;SDS011;2501;51.214;6.768;2022-11-15T11:35:30;2.83;;;1.50;;
4971;SDS011;2501;51.214;6.768;2022-11-15T11:38:15;3.92;;;1.60;;
4971;SDS011;2501;51.214;6.768;2022-11-15T11:40:57;2.90;;;1.50;;
4971;SDS011;2501;51.214;6.768;2022-11-15T11:43:36;2.58;;;1.40;;
4971;SDS011;2501;51.214;6.768;2022-11-15T11:46:16;1.83;;;1.30;;
4971;SDS011;2501;51.214;6.768;2022-11-15T11:49:00;1.95;;;1.30;;
4971;SDS011;2501;51.214;6.768;2022-11-15T11:51:36;2.30;;;1.58;;
4971;SDS011;2501;51.214;6.768;2022-11-15T11:54:11;4.30;;;1.50;;
4971;SDS011;2501;51.214;6.768;2022-11-15T11:56:45;3.72;;;1.80;;
4971;SDS011;2501;51.214;6.768;2022-11-15T11:59:19;5.00;;;2.20;;
4971;SDS011;2501;51.214;6.768;2022-11-15T12:01:53;2.47;;;1.40;;
4971;SDS011;2501;51.214;6.768;2022-11-15T12:04:24;2.75;;;1.40;;
4971;SDS011;2501;51.214;6.768;2022-11-15T12:06:58;9.10;;;2.60;;
4971;SDS011;2501;51.214;6.768;2022-11-15T12:09:30;4.05;;;1.60;;
4971;SDS011;2501;51.214;6.768;2022-11-15T12:12:04;4.60;;;1.50;;
4971;SDS011;2501;51.214;6.768;2022-11-15T12:14:42;4.22;;;1.20;;
4971;SDS011;2501;51.214;6.768;2022-11-15T12:17:14;1.30;;;1.20;;
4971;SDS011;2501;51.214;6.768;2022-11-15T12:19:46;5.30;;;1.30;;
4971;SDS011;2501;51.214;6.768;2022-11-15T12:22:16;2.15;;;1.10;;
4971;SDS011;2501;51.214;6.768;2022-11-15T12:24:50;3.85;;;1.10;;
4971;SDS011;2501;51.214;6.768;2022-11-15T12:27:26;5.47;;;1.50;;
4971;SDS011;2501;51.214;6.768;2022-11-15T12:30:09;5.00;;;1.50;;
4971;SDS011;2501;51.214;6.768;2022-11-15T12:32:48;5.55;;;1.50;;
4971;SDS011;2501;51.214;6.768;2022-11-15T12:35:27;7.30;;;1.75;;
4971;SDS011;2501;51.214;6.768;2022-11-15T12:38:03;3.95;;;1.50;;
4971;SDS011;2501;51.214;6.768;2022-11-15T12:40:36;2.45;;;1.20;;
4971;SDS011;2501;51.214;6.768;2022-11-15T12:46:10;1.73;;;1.20;;
4971;SDS011;2501;51.214;6.768;2022-11-15T12:48:48;4.90;;;1.10;;
4971;SDS011;2501;51.214;6.768;2022-11-15T12:51:19;3.93;;;1.57;;
4971;SDS011;2501;51.214;6.768;2022-11-15T12:53:49;7.63;;;1.60;;
4971;SDS011;2501;51.214;6.768;2022-11-15T12:56:18;6.90;;;1.40;;
4971;SDS011;2501;51.214;6.768;2022-11-15T12:58:53;4.10;;;1.30;;
4971;SDS011;2501;51.214;6.768;2022-11-15T13:04:26;3.58;;;1.40;;
4971;SDS011;2501;51.214;6.768;2022-11-15T13:06:57;9.90;;;1.80;;
4971;SDS011;2501;51.214;6.768;2022-11-15T13:15:34;3.60;;;1.63;;
4971;SDS011;2501;51.214;6.768;2022-11-15T13:21:17;8.57;;;2.10;;
4971;SDS011;2501;51.214;6.768;2022-11-15T13:24:00;6.57;;;1.80;;
4971;SDS011;2501;51.214;6.768;2022-11-15T13:26:29;4.30;;;1.50;;
4971;SDS011;2501;51.214;6.768;2022-11-15T13:28:59;2.20;;;1.30;;
4971;SDS011;2501;51.214;6.768;2022-11-15T13:31:34;2.40;;;1.50;;
4971;SDS011;2501;51.214;6.768;2022-11-15T13:34:13;9.07;;;1.48;;
4971;SDS011;2501;51.214;6.768;2022-11-15T13:36:51;4.70;;;1.35;;
4971;SDS011;2501;51.214;6.768;2022-11-15T13:39:26;3.40;;;1.70;;
4971;SDS011;2501;51.214;6.768;2022-11-15T13:41:57;3.40;;;1.30;;
4971;SDS011;2501;51.214;6.768;2022-11-15T13:44:26;5.43;;;1.47;;
4971;SDS011;2501;51.214;6.768;2022-11-15T13:47:03;3.30;;;1.25;;
4971;SDS011;2501;51.214;6.768;2022-11-15T13:49:33;4.35;;;1.10;;
4971;SDS011;2501;51.214;6.768;2022-11-15T13:52:05;1.50;;;1.10;;
4971;SDS011;2501;51.214;6.768;2022-11-15T13:54:36;3.25;;;1.40;;
4971;SDS011;2501;51.214;6.768;2022-11-15T13:57:10;3.67;;;1.17;;
4971;SDS011;2501;51.214;6.768;2022-11-15T13:59:46;3.13;;;1.25;;
4971;SDS011;2501;51.214;6.768;2022-11-15T14:02:18;2.00;;;1.30;;
4971;SDS011;2501;51.214;6.768;2022-11-15T14:04:49;5.10;;;1.60;;
4971;SDS011;2501;51.214;6.768;2022-11-15T14:07:23;3.53;;;1.90;;
4971;SDS011;2501;51.214;6.768;2022-11-15T14:09:54;3.78;;;1.60;;
4971;SDS011;2501;51.214;6.768;2022-11-15T14:12:24;5.85;;;1.48;;
4971;SDS011;2501;51.214;6.768;2022-11-15T14:14:57;2.80;;;1.50;;
4971;SDS011;2501;51.214;6.768;2022-11-15T14:17:34;1.77;;;1.40;;
4971;SDS011;2501;51.214;6.768;2022-11-15T14:23:19;6.78;;;1.95;;
4971;SDS011;2501;51.214;6.768;2022-11-15T14:25:52;5.28;;;2.30;;
4971;SDS011;2501;51.214;6.768;2022-11-15T14:28:31;6.10;;;1.73;;
4971;SDS011;2501;51.214;6.768;2022-11-15T14:31:06;2.80;;;1.70;;
4971;SDS011;2501;51.214;6.768;2022-11-15T14:33:40;4.93;;;2.35;;
4971;SDS011;2501;51.214;6.768;2022-11-15T14:36:11;3.33;;;1.90;;
4971;SDS011;2501;51.214;6.768;2022-11-15T14:38:44;4.05;;;2.30;;
4971;SDS011;2501;51.214;6.768;2022-11-15T14:41:17;2.80;;;2.60;;
4971;SDS011;2501;51.214;6.768;2022-11-15T14:43:48;3.30;;;2.63;;
4971;SDS011;2501;51.214;6.768;2022-11-15T14:46:16;5.68;;;2.97;;
4971;SDS011;2501;51.214;6.768;2022-11-15T14:48:45;5.30;;;2.60;;
4971;SDS011;2501;51.214;6.768;2022-11-15T14:51:14;4.55;;;2.90;;
4971;SDS011;2501;51.214;6.768;2022-11-15T14:53:47;2.80;;;2.60;;
4971;SDS011;2501;51.214;6.768;2022-11-15T14:56:16;5.50;;;3.83;;
4971;SDS011;2501;51.214;6.768;2022-11-15T14:58:45;6.55;;;2.90;;
4971;SDS011;2501;51.214;6.768;2022-11-15T15:01:16;3.17;;;2.40;;
4971;SDS011;2501;51.214;6.768;2022-11-15T15:03:47;7.82;;;3.60;;
4971;SDS011;2501;51.214;6.768;2022-11-15T15:06:17;4.82;;;2.45;;
4971;SDS011;2501;51.214;6.768;2022-11-15T15:08:48;3.35;;;2.75;;
4971;SDS011;2501;51.214;6.768;2022-11-15T15:11:18;4.85;;;3.13;;
4971;SDS011;2501;51.214;6.768;2022-11-15T15:13:49;2.78;;;2.22;;
4971;SDS011;2501;51.214;6.768;2022-11-15T15:16:18;3.10;;;2.90;;
4971;SDS011;2501;51.214;6.768;2022-11-15T15:18:46;4.10;;;3.03;;
4971;SDS011;2501;51.214;6.768;2022-11-15T15:21:17;3.83;;;2.92;;
4971;SDS011;2501;51.214;6.768;2022-11-15T15:23:51;8.30;;;2.60;;
4971;SDS011;2501;51.214;6.768;2022-11-15T15:26:20;5.03;;;3.00;;
4971;SDS011;2501;51.214;6.768;2022-11-15T15:28:50;5.63;;;2.95;;
4971;SDS011;2501;51.214;6.768;2022-11-15T15:31:19;6.50;;;2.85;;
4971;SDS011;2501;51.214;6.768;2022-11-15T15:33:47;2.40;;;2.30;;
4971;SDS011;2501;51.214;6.768;2022-11-15T15:36:16;4.13;;;2.33;;
4971;SDS011;2501;51.214;6.768;2022-11-15T15:38:46;3.08;;;2.65;;
4971;SDS011;2501;51.214;6.768;2022-11-15T15:41:17;3.25;;;2.47;;
4971;SDS011;2501;51.214;6.768;2022-11-15T15:43:46;6.40;;;3.30;;
4971;SDS011;2501;51.214;6.768;2022-11-15T15:46:15;6.32;;;3.00;;
4971;SDS011;2501;51.214;6.768;2022-11-15T15:48:45;5.43;;;3.00;;
4971;SDS011;2501;51.214;6.768;2022-11-15T15:51:14;4.47;;;2.67;;
4971;SDS011;2501;51.214;6.768;2022-11-15T15:53:43;3.50;;;3.20;;
4971;SDS011;2501;51.214;6.768;2022-11-15T15:56:11;4.40;;;2.58;;
4971;SDS011;2501;51.214;6.768;2022-11-15T15:58:42;4.38;;;3.00;;
4971;SDS011;2501;51.214;6.768;2022-11-15T16:01:10;2.80;;;2.50;;
4971;SDS011;2501;51.214;6.768;2022-11-15T16:03:39;6.78;;;2.53;;
4971;SDS011;2501;51.214;6.768;2022-11-15T16:09:00;4.13;;;3.00;;